sensor_id;sensor_type;location;lat;lon;timestamp;temperature;humidity
29917;DHT22;16786;49.466;11.068;2024-01-06T00:00:31;5.00;99.90
29917;DHT22;16786;49.466;11.068;2024-01-06T00:02:58;5.00;99.90
29917;DHT22;16786;49.466;11.068;2024-01-06T00:05:25;5.00;99.90
29917;DHT22;16786;49.466;11.068;2024-01-06T00:07:52;5.10;99.90
29917;DHT22;16786;49.466;11.068;2024-01-06T00:10:19;5.10;99.90
29917;DHT22;16786;49.466;11.068;2024-01-06T00:12:46;5.10;99.90
29917;DHT22;16786;49.466;11.068;2024-01-06T00:15:15;5.10;99.90
29917;DHT22;16786;49.466;11.068;2024-01-06T00:17:42;5.10;99.90
29917;DHT22;16786;49.466;11.068;2024-01-06T00:20:10;5.20;99.90
29917;DHT22;16786;49.466;11.068;2024-01-06T00:22:37;5.20;99.90
29917;DHT22;16786;49.466;11.068;2024-01-06T00:25:04;5.20;99.90
29917;DHT22;16786;49.466;11.068;2024-01-06T00:27:31;5.20;99.90
29917;DHT22;16786;49.466;11.068;2024-01-06T00:29:58;5.20;99.90
29917;DHT22;16786;49.466;11.068;2024-01-06T00:32:25;5.10;99.90
29917;DHT22;16786;49.466;11.068;2024-01-06T00:34:53;5.20;99.90
29917;DHT22;16786;49.466;11.068;2024-01-06T00:37:20;5.10;99.90
29917;DHT22;16786;49.466;11.068;2024-01-06T00:39:47;5.10;99.90
29917;DHT22;16786;49.466;11.068;2024-01-06T00:42:14;5.10;99.90
29917;DHT22;16786;49.466;11.068;2024-01-06T00:44:41;5.00;99.90
29917;DHT22;16786;49.466;11.068;2024-01-06T00:47:08;5.00;99.90
29917;DHT22;16786;49.466;11.068;2024-01-06T00:49:35;5.00;99.90
29917;DHT22;16786;49.466;11.068;2024-01-06T00:52:03;5.00;99.90
29917;DHT22;16786;49.466;11.068;2024-01-06T00:54:29;5.00;99.90
29917;DHT22;16786;49.466;11.068;2024-01-06T00:56:56;5.00;99.90
29917;DHT22;16786;49.466;11.068;2024-01-06T00:59:24;5.00;99.90
29917;DHT22;16786;49.466;11.068;2024-01-06T01:01:52;4.90;99.90
29917;DHT22;16786;49.466;11.068;2024-01-06T01:04:19;4.90;99.90
29917;DHT22;16786;49.466;11.068;2024-01-06T01:06:46;4.90;99.90
29917;DHT22;16786;49.466;11.068;2024-01-06T01:09:13;4.80;99.90
29917;DHT22;16786;49.466;11.068;2024-01-06T01:11:41;4.80;99.90
29917;DHT22;16786;49.466;11.068;2024-01-06T01:14:08;4.80;99.90
29917;DHT22;16786;49.466;11.068;2024-01-06T01:16:35;4.70;99.90
29917;DHT22;16786;49.466;11.068;2024-01-06T01:19:02;4.80;99.90
29917;DHT22;16786;49.466;11.068;2024-01-06T01:21:29;4.80;99.90
29917;DHT22;16786;49.466;11.068;2024-01-06T01:23:56;4.70;99.90
29917;DHT22;16786;49.466;11.068;2024-01-06T01:26:23;4.70;99.90
29917;DHT22;16786;49.466;11.068;2024-01-06T01:28:50;4.70;99.90
29917;DHT22;16786;49.466;11.068;2024-01-06T01:31:17;4.70;99.90
29917;DHT22;16786;49.466;11.068;2024-01-06T01:33:44;4.70;99.90
29917;DHT22;16786;49.466;11.068;2024-01-06T01:36:11;4.70;99.90
29917;DHT22;16786;49.466;11.068;2024-01-06T01:38:39;4.70;99.90
29917;DHT22;16786;49.466;11.068;2024-01-06T01:41:06;4.60;99.90
29917;DHT22;16786;49.466;11.068;2024-01-06T01:43:32;4.60;99.90
29917;DHT22;16786;49.466;11.068;2024-01-06T01:46:00;4.60;99.90
29917;DHT22;16786;49.466;11.068;2024-01-06T01:48:28;4.60;99.90
29917;DHT22;16786;49.466;11.068;2024-01-06T01:50:55;4.60;99.90
29917;DHT22;16786;49.466;11.068;2024-01-06T01:53:23;4.60;99.90
29917;DHT22;16786;49.466;11.068;2024-01-06T01:55:52;4.60;99.90
29917;DHT22;16786;49.466;11.068;2024-01-06T01:58:19;4.60;99.90
29917;DHT22;16786;49.466;11.068;2024-01-06T02:00:46;4.60;99.90
29917;DHT22;16786;49.466;11.068;2024-01-06T02:03:13;4.60;99.90
29917;DHT22;16786;49.466;11.068;2024-01-06T02:05:41;4.60;99.90
29917;DHT22;16786;49.466;11.068;2024-01-06T02:08:08;4.60;99.90
29917;DHT22;16786;49.466;11.068;2024-01-06T02:10:35;4.60;99.90
29917;DHT22;16786;49.466;11.068;2024-01-06T02:13:12;4.50;99.90
29917;DHT22;16786;49.466;11.068;2024-01-06T02:15:39;4.60;99.90
29917;DHT22;16786;49.466;11.068;2024-01-06T02:18:06;4.60;99.90
29917;DHT22;16786;49.466;11.068;2024-01-06T02:20:34;4.50;99.90
29917;DHT22;16786;49.466;11.068;2024-01-06T02:23:01;4.50;99.90
29917;DHT22;16786;49.466;11.068;2024-01-06T02:25:28;4.50;99.90
29917;DHT22;16786;49.466;11.068;2024-01-06T02:27:55;4.50;99.90
29917;DHT22;16786;49.466;11.068;2024-01-06T02:30:22;4.50;99.90
29917;DHT22;16786;49.466;11.068;2024-01-06T02:32:50;4.50;99.90
29917;DHT22;16786;49.466;11.068;2024-01-06T02:35:17;4.50;99.90
29917;DHT22;16786;49.466;11.068;2024-01-06T02:37:43;4.50;99.90
29917;DHT22;16786;49.466;11.068;2024-01-06T02:40:11;4.50;99.90
29917;DHT22;16786;49.466;11.068;2024-01-06T02:42:38;4.50;99.90
29917;DHT22;16786;49.466;11.068;2024-01-06T02:45:07;4.50;99.90
29917;DHT22;16786;49.466;11.068;2024-01-06T02:47:34;4.50;99.90
29917;DHT22;16786;49.466;11.068;2024-01-06T02:50:01;4.50;99.90
29917;DHT22;16786;49.466;11.068;2024-01-06T02:52:28;4.50;99.90
29917;DHT22;16786;49.466;11.068;2024-01-06T02:54:54;4.50;99.90
29917;DHT22;16786;49.466;11.068;2024-01-06T02:57:22;4.50;99.90
29917;DHT22;16786;49.466;11.068;2024-01-06T02:59:48;4.50;99.90
29917;DHT22;16786;49.466;11.068;2024-01-06T03:02:16;4.50;99.90
29917;DHT22;16786;49.466;11.068;2024-01-06T03:04:43;4.50;99.90
29917;DHT22;16786;49.466;11.068;2024-01-06T03:07:10;4.40;99.90
29917;DHT22;16786;49.466;11.068;2024-01-06T03:09:37;4.40;99.90
29917;DHT22;16786;49.466;11.068;2024-01-06T03:12:06;4.40;99.90
29917;DHT22;16786;49.466;11.068;2024-01-06T03:14:37;4.40;99.90
29917;DHT22;16786;49.466;11.068;2024-01-06T03:17:04;4.40;99.90
29917;DHT22;16786;49.466;11.068;2024-01-06T03:19:31;4.40;99.90
29917;DHT22;16786;49.466;11.068;2024-01-06T03:21:58;4.40;99.90
29917;DHT22;16786;49.466;11.068;2024-01-06T03:24:27;4.40;99.90
29917;DHT22;16786;49.466;11.068;2024-01-06T03:26:54;4.30;99.90
29917;DHT22;16786;49.466;11.068;2024-01-06T03:29:21;4.30;99.90
29917;DHT22;16786;49.466;11.068;2024-01-06T03:31:48;4.30;99.90
29917;DHT22;16786;49.466;11.068;2024-01-06T03:34:15;4.30;99.90
29917;DHT22;16786;49.466;11.068;2024-01-06T03:36:42;4.30;99.90
29917;DHT22;16786;49.466;11.068;2024-01-06T03:39:09;4.30;99.90
29917;DHT22;16786;49.466;11.068;2024-01-06T03:41:37;4.30;99.90
29917;DHT22;16786;49.466;11.068;2024-01-06T03:44:04;4.30;99.90
29917;DHT22;16786;49.466;11.068;2024-01-06T03:46:32;4.30;99.90
29917;DHT22;16786;49.466;11.068;2024-01-06T03:48:59;4.30;99.90
29917;DHT22;16786;49.466;11.068;2024-01-06T03:51:26;4.20;99.90
29917;DHT22;16786;49.466;11.068;2024-01-06T03:53:53;4.20;99.90
29917;DHT22;16786;49.466;11.068;2024-01-06T03:56:20;4.30;99.90
29917;DHT22;16786;49.466;11.068;2024-01-06T03:58:47;4.30;99.90
29917;DHT22;16786;49.466;11.068;2024-01-06T04:01:14;4.30;99.90
29917;DHT22;16786;49.466;11.068;2024-01-06T04:03:41;4.30;99.90
29917;DHT22;16786;49.466;11.068;2024-01-06T04:06:09;4.30;99.90
29917;DHT22;16786;49.466;11.068;2024-01-06T04:08:39;4.30;99.90
29917;DHT22;16786;49.466;11.068;2024-01-06T04:11:06;4.30;99.90
29917;DHT22;16786;49.466;11.068;2024-01-06T04:13:32;4.30;99.90
29917;DHT22;16786;49.466;11.068;2024-01-06T04:15:59;4.30;99.90
29917;DHT22;16786;49.466;11.068;2024-01-06T04:18:26;4.20;99.90
29917;DHT22;16786;49.466;11.068;2024-01-06T04:20:53;4.20;99.90
29917;DHT22;16786;49.466;11.068;2024-01-06T04:23:20;4.20;99.90
29917;DHT22;16786;49.466;11.068;2024-01-06T04:25:51;4.10;99.90
29917;DHT22;16786;49.466;11.068;2024-01-06T04:28:19;4.10;99.90
29917;DHT22;16786;49.466;11.068;2024-01-06T04:30:46;4.10;99.90
29917;DHT22;16786;49.466;11.068;2024-01-06T04:33:13;4.10;99.90
29917;DHT22;16786;49.466;11.068;2024-01-06T04:35:40;4.10;99.90
29917;DHT22;16786;49.466;11.068;2024-01-06T04:38:07;4.10;99.90
29917;DHT22;16786;49.466;11.068;2024-01-06T04:40:34;4.00;99.90
29917;DHT22;16786;49.466;11.068;2024-01-06T04:43:00;4.10;99.90
29917;DHT22;16786;49.466;11.068;2024-01-06T04:45:27;4.00;99.90
29917;DHT22;16786;49.466;11.068;2024-01-06T04:47:55;4.00;99.90
29917;DHT22;16786;49.466;11.068;2024-01-06T04:50:22;4.00;99.90
29917;DHT22;16786;49.466;11.068;2024-01-06T04:52:48;4.00;99.90
29917;DHT22;16786;49.466;11.068;2024-01-06T04:55:15;4.00;99.90
29917;DHT22;16786;49.466;11.068;2024-01-06T04:57:42;4.00;99.90
29917;DHT22;16786;49.466;11.068;2024-01-06T05:00:10;4.00;99.90
29917;DHT22;16786;49.466;11.068;2024-01-06T05:02:37;4.00;99.90
29917;DHT22;16786;49.466;11.068;2024-01-06T05:05:04;4.00;99.90
29917;DHT22;16786;49.466;11.068;2024-01-06T05:07:31;4.10;99.90
29917;DHT22;16786;49.466;11.068;2024-01-06T05:09:58;4.10;99.90
29917;DHT22;16786;49.466;11.068;2024-01-06T05:12:25;4.00;99.90
29917;DHT22;16786;49.466;11.068;2024-01-06T05:14:52;4.00;99.90
29917;DHT22;16786;49.466;11.068;2024-01-06T05:17:19;4.10;99.90
29917;DHT22;16786;49.466;11.068;2024-01-06T05:19:46;4.10;99.90
29917;DHT22;16786;49.466;11.068;2024-01-06T05:22:13;4.10;99.90
29917;DHT22;16786;49.466;11.068;2024-01-06T05:24:40;4.10;99.90
29917;DHT22;16786;49.466;11.068;2024-01-06T05:27:07;4.10;99.90
29917;DHT22;16786;49.466;11.068;2024-01-06T05:29:37;4.10;99.90
29917;DHT22;16786;49.466;11.068;2024-01-06T05:32:04;4.10;99.90
29917;DHT22;16786;49.466;11.068;2024-01-06T05:34:31;4.00;99.90
29917;DHT22;16786;49.466;11.068;2024-01-06T05:36:58;4.00;99.90
29917;DHT22;16786;49.466;11.068;2024-01-06T05:39:25;4.00;99.90
29917;DHT22;16786;49.466;11.068;2024-01-06T05:41:52;4.00;99.90
29917;DHT22;16786;49.466;11.068;2024-01-06T05:44:19;3.90;99.90
29917;DHT22;16786;49.466;11.068;2024-01-06T05:46:46;3.90;99.90
29917;DHT22;16786;49.466;11.068;2024-01-06T05:49:13;3.90;99.90
29917;DHT22;16786;49.466;11.068;2024-01-06T05:51:44;3.90;99.90
29917;DHT22;16786;49.466;11.068;2024-01-06T05:54:12;3.80;99.90
29917;DHT22;16786;49.466;11.068;2024-01-06T05:56:39;3.80;99.90
29917;DHT22;16786;49.466;11.068;2024-01-06T05:59:07;3.80;99.90
29917;DHT22;16786;49.466;11.068;2024-01-06T06:01:34;3.80;99.90
29917;DHT22;16786;49.466;11.068;2024-01-06T06:04:01;3.80;99.90
29917;DHT22;16786;49.466;11.068;2024-01-06T06:06:28;3.70;99.90
29917;DHT22;16786;49.466;11.068;2024-01-06T06:08:55;3.70;99.90
29917;DHT22;16786;49.466;11.068;2024-01-06T06:11:23;3.70;99.90
29917;DHT22;16786;49.466;11.068;2024-01-06T06:13:49;3.80;99.90
29917;DHT22;16786;49.466;11.068;2024-01-06T06:16:16;3.80;99.90
29917;DHT22;16786;49.466;11.068;2024-01-06T06:18:43;3.80;99.90
29917;DHT22;16786;49.466;11.068;2024-01-06T06:21:10;3.70;99.90
29917;DHT22;16786;49.466;11.068;2024-01-06T06:23:37;3.70;99.90
29917;DHT22;16786;49.466;11.068;2024-01-06T06:26:05;3.70;99.90
29917;DHT22;16786;49.466;11.068;2024-01-06T06:28:33;3.70;99.90
29917;DHT22;16786;49.466;11.068;2024-01-06T06:31:01;3.70;99.90
29917;DHT22;16786;49.466;11.068;2024-01-06T06:33:29;3.70;99.90
29917;DHT22;16786;49.466;11.068;2024-01-06T06:35:56;3.70;99.90
29917;DHT22;16786;49.466;11.068;2024-01-06T06:38:25;3.70;99.90
29917;DHT22;16786;49.466;11.068;2024-01-06T06:40:53;3.60;99.90
29917;DHT22;16786;49.466;11.068;2024-01-06T06:43:20;3.60;99.90
29917;DHT22;16786;49.466;11.068;2024-01-06T06:45:47;3.60;99.90
29917;DHT22;16786;49.466;11.068;2024-01-06T06:48:14;3.60;99.90
29917;DHT22;16786;49.466;11.068;2024-01-06T06:50:41;3.50;99.90
29917;DHT22;16786;49.466;11.068;2024-01-06T06:53:08;3.50;99.90
29917;DHT22;16786;49.466;11.068;2024-01-06T06:55:35;3.50;99.90
29917;DHT22;16786;49.466;11.068;2024-01-06T06:58:04;3.40;99.90
29917;DHT22;16786;49.466;11.068;2024-01-06T07:00:32;3.50;99.90
29917;DHT22;16786;49.466;11.068;2024-01-06T07:02:59;3.40;99.90
29917;DHT22;16786;49.466;11.068;2024-01-06T07:05:27;3.40;99.90
29917;DHT22;16786;49.466;11.068;2024-01-06T07:07:54;3.40;99.90
29917;DHT22;16786;49.466;11.068;2024-01-06T07:10:22;3.50;99.90
29917;DHT22;16786;49.466;11.068;2024-01-06T07:12:49;3.40;99.90
29917;DHT22;16786;49.466;11.068;2024-01-06T07:15:16;3.50;99.90
29917;DHT22;16786;49.466;11.068;2024-01-06T07:17:43;3.50;99.90
29917;DHT22;16786;49.466;11.068;2024-01-06T07:20:10;3.50;99.90
29917;DHT22;16786;49.466;11.068;2024-01-06T07:22:37;3.50;99.90
29917;DHT22;16786;49.466;11.068;2024-01-06T07:25:05;3.50;99.90
29917;DHT22;16786;49.466;11.068;2024-01-06T07:27:33;3.50;99.90
29917;DHT22;16786;49.466;11.068;2024-01-06T07:30:00;3.60;99.90
29917;DHT22;16786;49.466;11.068;2024-01-06T07:32:27;3.60;99.90
29917;DHT22;16786;49.466;11.068;2024-01-06T07:34:53;3.60;99.90
29917;DHT22;16786;49.466;11.068;2024-01-06T07:37:20;3.60;99.90
29917;DHT22;16786;49.466;11.068;2024-01-06T07:39:47;3.70;99.90
29917;DHT22;16786;49.466;11.068;2024-01-06T07:42:14;3.70;99.90
29917;DHT22;16786;49.466;11.068;2024-01-06T07:44:41;3.70;99.90
29917;DHT22;16786;49.466;11.068;2024-01-06T07:47:08;3.70;99.90
29917;DHT22;16786;49.466;11.068;2024-01-06T07:49:35;3.70;99.90
29917;DHT22;16786;49.466;11.068;2024-01-06T07:52:02;3.80;99.90
29917;DHT22;16786;49.466;11.068;2024-01-06T07:54:30;3.80;99.90
29917;DHT22;16786;49.466;11.068;2024-01-06T07:56:56;3.90;99.90
29917;DHT22;16786;49.466;11.068;2024-01-06T07:59:23;3.90;99.90
29917;DHT22;16786;49.466;11.068;2024-01-06T08:01:51;3.90;99.90
29917;DHT22;16786;49.466;11.068;2024-01-06T08:04:18;3.90;99.90
29917;DHT22;16786;49.466;11.068;2024-01-06T08:06:45;4.00;99.90
29917;DHT22;16786;49.466;11.068;2024-01-06T08:09:12;4.10;99.90
29917;DHT22;16786;49.466;11.068;2024-01-06T08:11:39;4.10;99.90
29917;DHT22;16786;49.466;11.068;2024-01-06T08:14:06;4.10;99.90
29917;DHT22;16786;49.466;11.068;2024-01-06T08:16:33;4.10;99.90
29917;DHT22;16786;49.466;11.068;2024-01-06T08:19:00;4.20;99.90
29917;DHT22;16786;49.466;11.068;2024-01-06T08:21:27;4.20;99.90
29917;DHT22;16786;49.466;11.068;2024-01-06T08:23:55;4.20;99.90
29917;DHT22;16786;49.466;11.068;2024-01-06T08:26:22;4.20;99.90
29917;DHT22;16786;49.466;11.068;2024-01-06T08:28:49;4.30;99.90
29917;DHT22;16786;49.466;11.068;2024-01-06T08:31:16;4.20;99.90
29917;DHT22;16786;49.466;11.068;2024-01-06T08:33:43;4.30;99.90
29917;DHT22;16786;49.466;11.068;2024-01-06T08:36:11;4.20;99.90
29917;DHT22;16786;49.466;11.068;2024-01-06T08:38:38;4.30;99.90
29917;DHT22;16786;49.466;11.068;2024-01-06T08:41:06;4.30;99.90
29917;DHT22;16786;49.466;11.068;2024-01-06T08:43:33;4.40;99.90
29917;DHT22;16786;49.466;11.068;2024-01-06T08:46:00;4.40;99.90
29917;DHT22;16786;49.466;11.068;2024-01-06T08:48:27;4.40;99.90
29917;DHT22;16786;49.466;11.068;2024-01-06T08:50:56;4.50;99.90
29917;DHT22;16786;49.466;11.068;2024-01-06T08:53:24;4.60;99.90
29917;DHT22;16786;49.466;11.068;2024-01-06T08:55:52;4.60;99.90
29917;DHT22;16786;49.466;11.068;2024-01-06T08:58:19;4.70;99.90
29917;DHT22;16786;49.466;11.068;2024-01-06T09:00:46;4.90;99.90
29917;DHT22;16786;49.466;11.068;2024-01-06T09:03:13;5.00;99.90
29917;DHT22;16786;49.466;11.068;2024-01-06T09:05:40;5.10;99.90
29917;DHT22;16786;49.466;11.068;2024-01-06T09:08:07;5.20;99.90
29917;DHT22;16786;49.466;11.068;2024-01-06T09:10:34;5.30;99.90
29917;DHT22;16786;49.466;11.068;2024-01-06T09:13:01;5.30;99.90
29917;DHT22;16786;49.466;11.068;2024-01-06T09:15:28;5.30;99.90
29917;DHT22;16786;49.466;11.068;2024-01-06T09:17:55;5.30;99.90
29917;DHT22;16786;49.466;11.068;2024-01-06T09:20:22;5.30;99.90
29917;DHT22;16786;49.466;11.068;2024-01-06T09:22:50;5.40;99.90
29917;DHT22;16786;49.466;11.068;2024-01-06T09:25:17;5.40;99.90
29917;DHT22;16786;49.466;11.068;2024-01-06T09:27:44;5.50;99.90
29917;DHT22;16786;49.466;11.068;2024-01-06T09:30:12;5.50;99.90
29917;DHT22;16786;49.466;11.068;2024-01-06T09:32:39;5.50;99.90
29917;DHT22;16786;49.466;11.068;2024-01-06T09:35:07;5.50;99.90
29917;DHT22;16786;49.466;11.068;2024-01-06T09:37:34;5.50;99.90
29917;DHT22;16786;49.466;11.068;2024-01-06T09:40:01;5.60;99.90
29917;DHT22;16786;49.466;11.068;2024-01-06T09:42:29;5.40;99.90
29917;DHT22;16786;49.466;11.068;2024-01-06T09:44:56;5.40;99.90
29917;DHT22;16786;49.466;11.068;2024-01-06T09:47:24;5.50;99.90
29917;DHT22;16786;49.466;11.068;2024-01-06T09:49:54;5.50;99.90
29917;DHT22;16786;49.466;11.068;2024-01-06T09:52:22;5.50;99.90
29917;DHT22;16786;49.466;11.068;2024-01-06T09:54:52;5.50;99.90
29917;DHT22;16786;49.466;11.068;2024-01-06T09:57:20;5.50;99.90
29917;DHT22;16786;49.466;11.068;2024-01-06T09:59:48;5.40;99.90
29917;DHT22;16786;49.466;11.068;2024-01-06T10:02:16;5.40;99.90
29917;DHT22;16786;49.466;11.068;2024-01-06T10:04:44;5.30;99.90
29917;DHT22;16786;49.466;11.068;2024-01-06T10:07:12;5.30;99.90
29917;DHT22;16786;49.466;11.068;2024-01-06T10:09:41;5.20;99.90
29917;DHT22;16786;49.466;11.068;2024-01-06T10:12:11;5.20;99.90
29917;DHT22;16786;49.466;11.068;2024-01-06T10:14:38;5.20;99.90
29917;DHT22;16786;49.466;11.068;2024-01-06T10:17:07;5.20;99.90
29917;DHT22;16786;49.466;11.068;2024-01-06T10:19:35;5.20;99.90
29917;DHT22;16786;49.466;11.068;2024-01-06T10:22:03;5.40;99.90
29917;DHT22;16786;49.466;11.068;2024-01-06T10:24:30;5.40;99.90
29917;DHT22;16786;49.466;11.068;2024-01-06T10:26:58;5.50;99.90
29917;DHT22;16786;49.466;11.068;2024-01-06T10:29:26;5.60;99.90
29917;DHT22;16786;49.466;11.068;2024-01-06T10:31:54;5.70;99.90
29917;DHT22;16786;49.466;11.068;2024-01-06T10:34:23;5.80;99.90
29917;DHT22;16786;49.466;11.068;2024-01-06T10:36:51;5.90;99.90
29917;DHT22;16786;49.466;11.068;2024-01-06T10:39:21;5.90;99.90
29917;DHT22;16786;49.466;11.068;2024-01-06T10:41:49;5.90;99.90
29917;DHT22;16786;49.466;11.068;2024-01-06T10:44:16;5.80;99.90
29917;DHT22;16786;49.466;11.068;2024-01-06T10:46:44;5.90;99.90
29917;DHT22;16786;49.466;11.068;2024-01-06T10:49:12;5.90;99.90
29917;DHT22;16786;49.466;11.068;2024-01-06T10:51:40;5.90;99.90
29917;DHT22;16786;49.466;11.068;2024-01-06T10:54:09;6.00;99.90
29917;DHT22;16786;49.466;11.068;2024-01-06T10:56:37;5.90;99.90
29917;DHT22;16786;49.466;11.068;2024-01-06T10:59:05;5.90;99.90
29917;DHT22;16786;49.466;11.068;2024-01-06T11:01:34;6.00;99.90
29917;DHT22;16786;49.466;11.068;2024-01-06T11:04:03;6.10;99.90
29917;DHT22;16786;49.466;11.068;2024-01-06T11:06:32;6.10;99.90
29917;DHT22;16786;49.466;11.068;2024-01-06T11:09:18;6.10;99.90
29917;DHT22;16786;49.466;11.068;2024-01-06T11:11:47;6.10;99.90
29917;DHT22;16786;49.466;11.068;2024-01-06T11:14:24;6.20;99.90
29917;DHT22;16786;49.466;11.068;2024-01-06T11:16:52;6.40;99.90
29917;DHT22;16786;49.466;11.068;2024-01-06T11:19:42;6.50;99.90
29917;DHT22;16786;49.466;11.068;2024-01-06T11:22:27;6.60;99.90
29917;DHT22;16786;49.466;11.068;2024-01-06T11:25:06;6.70;99.90
29917;DHT22;16786;49.466;11.068;2024-01-06T11:27:35;6.80;99.90
29917;DHT22;16786;49.466;11.068;2024-01-06T11:30:04;6.70;99.90
29917;DHT22;16786;49.466;11.068;2024-01-06T11:32:36;6.80;99.90
29917;DHT22;16786;49.466;11.068;2024-01-06T11:35:11;6.90;99.90
29917;DHT22;16786;49.466;11.068;2024-01-06T11:42:42;6.70;99.90
29917;DHT22;16786;49.466;11.068;2024-01-06T11:45:09;6.70;99.90
29917;DHT22;16786;49.466;11.068;2024-01-06T11:47:36;6.70;99.90
29917;DHT22;16786;49.466;11.068;2024-01-06T11:50:04;6.80;99.90
29917;DHT22;16786;49.466;11.068;2024-01-06T11:52:32;6.70;99.90
29917;DHT22;16786;49.466;11.068;2024-01-06T11:55:00;6.70;99.90
29917;DHT22;16786;49.466;11.068;2024-01-06T11:57:29;6.60;99.90
29917;DHT22;16786;49.466;11.068;2024-01-06T11:59:56;6.60;99.90
29917;DHT22;16786;49.466;11.068;2024-01-06T12:02:23;6.50;99.90
29917;DHT22;16786;49.466;11.068;2024-01-06T12:04:53;6.40;99.90
29917;DHT22;16786;49.466;11.068;2024-01-06T12:07:21;6.40;99.90
29917;DHT22;16786;49.466;11.068;2024-01-06T12:10:01;6.30;99.90
29917;DHT22;16786;49.466;11.068;2024-01-06T12:12:29;6.30;99.90
29917;DHT22;16786;49.466;11.068;2024-01-06T12:14:56;6.20;99.90
29917;DHT22;16786;49.466;11.068;2024-01-06T12:17:28;6.20;99.90
29917;DHT22;16786;49.466;11.068;2024-01-06T12:19:56;6.10;99.90
29917;DHT22;16786;49.466;11.068;2024-01-06T12:22:23;6.10;99.90
29917;DHT22;16786;49.466;11.068;2024-01-06T12:24:51;6.00;99.90
29917;DHT22;16786;49.466;11.068;2024-01-06T12:27:18;6.00;99.90
29917;DHT22;16786;49.466;11.068;2024-01-06T12:29:48;6.00;99.90
29917;DHT22;16786;49.466;11.068;2024-01-06T12:32:15;6.00;99.90
29917;DHT22;16786;49.466;11.068;2024-01-06T12:34:42;6.00;99.90
29917;DHT22;16786;49.466;11.068;2024-01-06T12:37:09;6.00;99.90
29917;DHT22;16786;49.466;11.068;2024-01-06T12:39:36;5.90;99.90
29917;DHT22;16786;49.466;11.068;2024-01-06T12:42:03;6.00;99.90
29917;DHT22;16786;49.466;11.068;2024-01-06T12:44:30;6.10;99.90
29917;DHT22;16786;49.466;11.068;2024-01-06T12:47:00;6.10;99.90
29917;DHT22;16786;49.466;11.068;2024-01-06T12:49:27;6.20;99.90
29917;DHT22;16786;49.466;11.068;2024-01-06T12:51:54;6.30;99.90
29917;DHT22;16786;49.466;11.068;2024-01-06T12:54:21;6.20;99.90
29917;DHT22;16786;49.466;11.068;2024-01-06T12:56:48;6.20;99.90
29917;DHT22;16786;49.466;11.068;2024-01-06T12:59:15;6.20;99.90
29917;DHT22;16786;49.466;11.068;2024-01-06T13:01:42;6.30;99.90
29917;DHT22;16786;49.466;11.068;2024-01-06T13:04:10;6.30;99.90
29917;DHT22;16786;49.466;11.068;2024-01-06T13:06:37;6.30;99.90
29917;DHT22;16786;49.466;11.068;2024-01-06T13:09:04;6.30;99.90
29917;DHT22;16786;49.466;11.068;2024-01-06T13:11:35;6.20;99.90
29917;DHT22;16786;49.466;11.068;2024-01-06T13:14:03;6.20;99.90
29917;DHT22;16786;49.466;11.068;2024-01-06T13:16:30;6.20;99.90
29917;DHT22;16786;49.466;11.068;2024-01-06T13:18:57;6.30;99.90
29917;DHT22;16786;49.466;11.068;2024-01-06T13:21:24;6.10;99.90
29917;DHT22;16786;49.466;11.068;2024-01-06T13:23:51;6.10;99.90
29917;DHT22;16786;49.466;11.068;2024-01-06T13:26:18;6.10;99.90
29917;DHT22;16786;49.466;11.068;2024-01-06T13:28:45;6.10;99.90
29917;DHT22;16786;49.466;11.068;2024-01-06T13:31:13;6.10;99.90
29917;DHT22;16786;49.466;11.068;2024-01-06T13:33:40;6.20;99.90
29917;DHT22;16786;49.466;11.068;2024-01-06T13:36:08;6.20;99.90
29917;DHT22;16786;49.466;11.068;2024-01-06T13:38:35;6.10;99.90
29917;DHT22;16786;49.466;11.068;2024-01-06T13:41:02;6.00;99.90
29917;DHT22;16786;49.466;11.068;2024-01-06T13:43:29;6.00;99.90
29917;DHT22;16786;49.466;11.068;2024-01-06T13:45:59;6.00;99.90
29917;DHT22;16786;49.466;11.068;2024-01-06T13:48:27;6.00;99.90
29917;DHT22;16786;49.466;11.068;2024-01-06T13:50:55;5.90;99.90
29917;DHT22;16786;49.466;11.068;2024-01-06T13:53:24;5.90;99.90
29917;DHT22;16786;49.466;11.068;2024-01-06T13:55:51;5.90;99.90
29917;DHT22;16786;49.466;11.068;2024-01-06T13:58:18;5.90;99.90
29917;DHT22;16786;49.466;11.068;2024-01-06T14:00:45;5.80;99.90
29917;DHT22;16786;49.466;11.068;2024-01-06T14:03:13;5.80;99.90
29917;DHT22;16786;49.466;11.068;2024-01-06T14:05:40;5.80;99.90
29917;DHT22;16786;49.466;11.068;2024-01-06T14:08:07;5.80;99.90
29917;DHT22;16786;49.466;11.068;2024-01-06T14:10:34;5.80;99.90
29917;DHT22;16786;49.466;11.068;2024-01-06T14:13:01;5.70;99.90
29917;DHT22;16786;49.466;11.068;2024-01-06T14:15:28;5.70;99.90
29917;DHT22;16786;49.466;11.068;2024-01-06T14:17:57;5.70;99.90
29917;DHT22;16786;49.466;11.068;2024-01-06T14:20:25;5.70;99.90
29917;DHT22;16786;49.466;11.068;2024-01-06T14:22:52;5.70;99.90
29917;DHT22;16786;49.466;11.068;2024-01-06T14:25:19;5.70;99.90
29917;DHT22;16786;49.466;11.068;2024-01-06T14:27:47;5.60;99.90
29917;DHT22;16786;49.466;11.068;2024-01-06T14:30:15;5.60;99.90
29917;DHT22;16786;49.466;11.068;2024-01-06T14:32:42;5.60;99.90
29917;DHT22;16786;49.466;11.068;2024-01-06T14:35:09;5.60;99.90
29917;DHT22;16786;49.466;11.068;2024-01-06T14:37:42;5.60;99.90
29917;DHT22;16786;49.466;11.068;2024-01-06T14:40:12;5.60;99.90
29917;DHT22;16786;49.466;11.068;2024-01-06T14:42:39;5.60;99.90
29917;DHT22;16786;49.466;11.068;2024-01-06T14:45:06;5.60;99.90
29917;DHT22;16786;49.466;11.068;2024-01-06T14:47:35;5.60;99.90
29917;DHT22;16786;49.466;11.068;2024-01-06T14:50:02;5.60;99.90
29917;DHT22;16786;49.466;11.068;2024-01-06T14:52:29;5.50;99.90
29917;DHT22;16786;49.466;11.068;2024-01-06T14:54:56;5.60;99.90
29917;DHT22;16786;49.466;11.068;2024-01-06T14:57:23;5.60;99.90
29917;DHT22;16786;49.466;11.068;2024-01-06T14:59:50;5.60;99.90
29917;DHT22;16786;49.466;11.068;2024-01-06T15:02:17;5.60;99.90
29917;DHT22;16786;49.466;11.068;2024-01-06T15:04:44;5.60;99.90
29917;DHT22;16786;49.466;11.068;2024-01-06T15:07:11;5.50;99.90
29917;DHT22;16786;49.466;11.068;2024-01-06T15:09:39;5.50;99.90
29917;DHT22;16786;49.466;11.068;2024-01-06T15:12:07;5.50;99.90
29917;DHT22;16786;49.466;11.068;2024-01-06T15:14:35;5.50;99.90
29917;DHT22;16786;49.466;11.068;2024-01-06T15:17:03;5.50;99.90
29917;DHT22;16786;49.466;11.068;2024-01-06T15:19:29;5.40;99.90
29917;DHT22;16786;49.466;11.068;2024-01-06T15:21:58;5.40;99.90
29917;DHT22;16786;49.466;11.068;2024-01-06T15:24:26;5.30;99.90
29917;DHT22;16786;49.466;11.068;2024-01-06T15:26:53;5.30;99.90
29917;DHT22;16786;49.466;11.068;2024-01-06T15:29:20;5.20;99.90
29917;DHT22;16786;49.466;11.068;2024-01-06T15:31:47;5.20;99.90
29917;DHT22;16786;49.466;11.068;2024-01-06T15:34:14;5.00;99.90
29917;DHT22;16786;49.466;11.068;2024-01-06T15:36:42;5.00;99.90